createdAt,value
2018-04-02T00:02:07.074Z,3.28
2018-04-02T00:04:40.987Z,3.17
2018-04-02T00:07:22.493Z,3.14
2018-04-02T00:09:59.663Z,3.05
2018-04-02T00:12:33.275Z,3.07
2018-04-02T00:15:05.811Z,3.01
2018-04-02T00:17:38.320Z,3.04
2018-04-02T00:20:14.897Z,3.04
2018-04-02T00:22:52.837Z,3.05
2018-04-02T00:25:27.930Z,3.02
2018-04-02T00:28:00.899Z,3.13
2018-04-02T00:30:33.408Z,3.14
2018-04-02T00:33:05.952Z,3.09
2018-04-02T00:35:39.101Z,3.10
2018-04-02T00:38:13.924Z,3.02
2018-04-02T00:40:52.004Z,3.06
2018-04-02T00:43:32.368Z,3.13
2018-04-02T00:46:05.325Z,3.14
2018-04-02T00:48:37.994Z,3.21
2018-04-02T00:51:22.297Z,3.20
2018-04-02T00:54:00.149Z,3.16
2018-04-02T00:56:32.714Z,3.13
2018-04-02T00:59:05.258Z,3.15
2018-04-02T01:01:37.750Z,3.17
2018-04-02T01:04:13.867Z,3.25
2018-04-02T01:06:49.434Z,3.21
2018-04-02T01:09:24.072Z,3.28
2018-04-02T01:11:59.361Z,3.28
2018-04-02T01:14:32.319Z,3.30
2018-04-02T01:17:04.799Z,3.34
2018-04-02T01:19:37.303Z,3.33
2018-04-02T01:22:10.524Z,3.35
2018-04-02T01:24:44.761Z,3.22
2018-04-02T01:27:20.601Z,3.20
2018-04-02T01:29:59.405Z,3.09
2018-04-02T01:32:32.001Z,3.09
2018-04-02T01:35:04.529Z,3.08
2018-04-02T01:37:37.030Z,3.09
2018-04-02T01:40:14.412Z,3.02
2018-04-02T01:42:53.580Z,3.10
2018-04-02T01:45:29.335Z,3.08
2018-04-02T01:48:02.268Z,3.07
2018-04-02T01:50:35.043Z,3.08
2018-04-02T01:53:07.526Z,3.13
2018-04-02T01:55:49.601Z,3.00
2018-04-02T01:58:23.903Z,2.94
2018-04-02T02:00:59.876Z,3.01
2018-04-02T02:03:32.390Z,3.00
2018-04-02T02:06:05.706Z,3.01
2018-04-02T02:08:38.431Z,2.98
2018-04-02T02:11:15.376Z,2.89
2018-04-02T02:13:54.526Z,2.82
2018-04-02T02:16:28.404Z,2.87
2018-04-02T02:19:00.966Z,2.93
2018-04-02T02:21:33.505Z,2.84
2018-04-02T02:24:06.134Z,2.83
2018-04-02T02:26:39.718Z,2.99
2018-04-02T02:29:15.490Z,2.93
2018-04-02T02:31:57.752Z,2.92
2018-04-02T02:34:31.512Z,2.95
2018-04-02T02:37:04.042Z,2.93
2018-04-02T02:39:36.548Z,2.95
2018-04-02T02:42:13.921Z,3.00
2018-04-02T02:44:48.281Z,2.92
2018-04-02T02:47:22.832Z,2.72
2018-04-02T02:49:58.823Z,2.73
2018-04-02T02:52:31.472Z,2.80
2018-04-02T02:55:04.004Z,2.91
2018-04-02T02:57:36.497Z,2.84
2018-04-02T03:00:09.773Z,2.78
2018-04-02T03:02:49.079Z,2.77
2018-04-02T03:05:26.831Z,2.75
2018-04-02T03:08:01.126Z,2.65
2018-04-02T03:10:33.834Z,2.41
2018-04-02T03:13:06.371Z,2.45
2018-04-02T03:15:39.125Z,2.55
2018-04-02T03:18:25.568Z,2.47
2018-04-02T03:20:59.289Z,2.51
2018-04-02T03:23:32.339Z,2.49
2018-04-02T03:26:05.279Z,2.55
2018-04-02T03:28:40.063Z,2.51
2018-04-02T03:31:29.261Z,2.57
2018-04-02T03:34:02.654Z,2.58
2018-04-02T03:36:35.262Z,2.21
2018-04-02T03:39:08.412Z,2.32
2018-04-02T03:41:46.600Z,2.35
2018-04-02T03:44:22.080Z,2.40
2018-04-02T03:46:59.296Z,2.37
2018-04-02T03:49:31.878Z,2.32
2018-04-02T03:52:04.452Z,2.24
2018-04-02T03:54:36.963Z,2.23
2018-04-02T03:57:12.999Z,2.30
2018-04-02T03:59:48.056Z,2.34
2018-04-02T04:02:24.085Z,2.32
2018-04-02T04:04:58.926Z,2.35
2018-04-02T04:07:31.763Z,2.42
2018-04-02T04:10:05.509Z,2.52
2018-04-02T04:12:38.020Z,2.61
2018-04-02T04:15:13.516Z,2.59
2018-04-02T04:17:57.038Z,2.60
2018-04-02T04:20:30.955Z,2.65
2018-04-02T04:23:03.548Z,2.63
2018-04-02T04:25:36.118Z,2.61
2018-04-02T04:28:08.797Z,2.45
2018-04-02T04:31:00.547Z,1.72
2018-04-02T04:33:33.170Z,1.42
2018-04-02T04:36:05.667Z,1.84
2018-04-02T04:38:38.154Z,2.01
2018-04-02T04:41:16.738Z,2.24
2018-04-02T04:43:52.059Z,2.18
2018-04-02T04:46:26.479Z,2.22
2018-04-02T04:48:59.638Z,2.19
2018-04-02T04:51:32.594Z,2.29
2018-04-02T04:54:05.043Z,2.36
2018-04-02T04:56:43.943Z,2.34
2018-04-02T04:59:25.973Z,1.67
2018-04-02T05:02:00.038Z,1.82
2018-04-02T05:04:32.634Z,2.15
2018-04-02T05:07:05.139Z,2.24
2018-04-02T05:09:37.622Z,2.35
2018-04-02T05:12:10.594Z,2.38
2018-04-02T05:14:45.534Z,2.44
2018-04-02T05:17:20.328Z,2.57
2018-04-02T05:19:53.716Z,2.83
2018-04-02T05:22:27.115Z,3.02
2018-04-02T05:24:59.838Z,3.31
2018-04-02T05:27:32.385Z,3.99
2018-04-02T05:30:04.861Z,4.86
2018-04-02T05:32:37.714Z,5.23
2018-04-02T05:35:11.437Z,5.61
2018-04-02T05:37:47.092Z,5.78
2018-04-02T05:40:23.595Z,5.58
2018-04-02T05:42:56.971Z,5.71
2018-04-02T05:45:30.690Z,5.49
2018-04-02T05:48:03.243Z,5.12
2018-04-02T05:50:35.737Z,5.55
2018-04-02T05:53:08.219Z,5.54
2018-04-02T05:55:43.783Z,5.26
2018-04-02T05:58:23.878Z,5.18
2018-04-02T06:00:57.243Z,5.27
2018-04-02T06:03:29.858Z,5.49
2018-04-02T06:06:02.379Z,6.28
2018-04-02T06:08:34.866Z,8.15
2018-04-02T06:11:07.366Z,9.24
2018-04-02T06:13:42.292Z,10.07
2018-04-02T06:16:22.170Z,10.26
2018-04-02T06:18:55.494Z,10.71
2018-04-02T06:21:30.026Z,10.47
2018-04-02T06:24:02.650Z,9.79
2018-04-02T06:26:42.407Z,9.26
2018-04-02T06:29:21.296Z,8.67
2018-04-02T06:31:55.257Z,7.46
2018-04-02T06:34:29.177Z,7.24
2018-04-02T06:37:01.893Z,7.28
2018-04-02T06:39:34.334Z,7.11
2018-04-02T06:42:06.836Z,6.71
2018-04-02T06:44:40.401Z,6.63
2018-04-02T06:47:16.768Z,6.79
2018-04-02T06:49:51.780Z,7.79
2018-04-02T06:52:25.720Z,8.98
2018-04-02T06:54:59.728Z,8.97
2018-04-02T06:57:32.255Z,8.29
2018-04-02T07:00:04.758Z,8.14
2018-04-02T07:02:37.262Z,7.87
2018-04-02T07:05:11.082Z,7.74
2018-04-02T07:07:49.472Z,7.58
2018-04-02T07:10:28.014Z,7.47
2018-04-02T07:13:01.008Z,7.24
2018-04-02T07:15:33.494Z,7.31
2018-04-02T07:18:06.012Z,7.28
2018-04-02T07:20:38.494Z,7.52
2018-04-02T07:23:14.146Z,7.59
2018-04-02T07:25:49.504Z,7.65
2018-04-02T07:28:23.564Z,7.25
2018-04-02T07:31:00.713Z,7.57
2018-04-02T07:33:33.343Z,7.67
2018-04-02T07:36:13.494Z,7.64
2018-04-02T07:38:48.147Z,7.92
2018-04-02T07:41:21.857Z,7.88
2018-04-02T07:44:00.611Z,8.02
2018-04-02T07:46:37.990Z,8.18
2018-04-02T07:49:21.442Z,8.10
2018-04-02T07:51:56.266Z,8.28
2018-04-02T07:54:30.520Z,8.03
2018-04-02T07:57:03.304Z,7.99
2018-04-02T07:59:36.605Z,8.49
2018-04-02T08:02:10.811Z,8.86
2018-04-02T08:04:51.545Z,8.69
2018-04-02T08:07:29.688Z,8.91
2018-04-02T08:10:02.289Z,9.02
2018-04-02T08:12:34.843Z,9.12
2018-04-02T08:15:07.354Z,9.19
2018-04-02T08:17:41.333Z,9.16
2018-04-02T08:20:16.905Z,8.91
2018-04-02T08:22:53.975Z,9.16
2018-04-02T08:25:27.762Z,9.23
2018-04-02T08:28:00.731Z,9.43
2018-04-02T08:30:33.503Z,9.39
2018-04-02T08:33:06.343Z,9.46
2018-04-02T08:35:39.016Z,9.45
2018-04-02T08:38:15.897Z,9.74
2018-04-02T08:40:59.895Z,9.68
2018-04-02T08:43:32.402Z,9.82
2018-04-02T08:46:04.874Z,10.26
2018-04-02T10:10:40.312Z,10.55
2018-04-02T10:13:19.242Z,11.21
2018-04-02T10:16:00.260Z,11.80
2018-04-02T10:18:32.820Z,11.41
2018-04-02T10:21:05.303Z,11.48
2018-04-02T10:23:37.803Z,11.55
2018-04-02T10:26:11.739Z,10.93
2018-04-02T10:28:47.078Z,11.46
2018-04-02T10:31:27.752Z,11.26
2018-04-02T10:34:00.810Z,11.96
2018-04-02T10:36:33.289Z,12.36
2018-04-02T10:39:05.787Z,11.71
2018-04-02T10:41:38.319Z,11.94
2018-04-02T10:44:16.919Z,11.87
2018-04-02T10:46:56.786Z,11.36
2018-04-02T10:49:30.602Z,11.74
2018-04-02T10:52:03.189Z,11.75
2018-04-02T10:54:35.671Z,11.67
2018-04-02T10:57:08.166Z,11.75
2018-04-02T10:59:46.384Z,11.87
2018-04-02T11:02:19.403Z,11.95
2018-04-02T11:04:52.200Z,11.90
2018-04-02T11:07:24.735Z,12.28
2018-04-02T11:09:58.618Z,12.46
2018-04-02T11:12:31.181Z,12.60
2018-04-02T11:15:03.622Z,12.50
2018-04-02T11:17:36.118Z,12.17
2018-04-02T11:20:08.597Z,12.84
2018-04-02T11:22:42.350Z,12.65
2018-04-02T11:25:15.018Z,12.36
2018-04-02T11:27:47.557Z,12.48
2018-04-02T11:30:20.068Z,12.98
2018-04-02T11:32:52.567Z,13.28
2018-04-02T11:35:25.039Z,13.01
2018-04-02T11:37:57.557Z,13.44
2018-04-02T11:40:30.040Z,13.45
2018-04-02T11:43:02.539Z,13.52
2018-04-02T11:45:35.013Z,13.32
2018-04-02T11:48:07.532Z,13.53
2018-04-02T11:50:40.040Z,13.29
2018-04-02T11:53:12.589Z,13.82
2018-04-02T11:55:45.106Z,14.25
2018-04-02T11:58:17.608Z,13.95
2018-04-02T12:00:50.089Z,13.76
2018-04-02T12:03:22.586Z,13.78
2018-04-02T12:05:55.062Z,14.26
2018-04-02T12:08:27.568Z,13.23
2018-04-02T12:11:00.046Z,13.79
2018-04-02T12:13:32.543Z,14.01
2018-04-02T12:16:05.020Z,13.61
2018-04-02T12:18:37.515Z,14.23
2018-04-02T12:21:10.467Z,14.91
2018-04-02T12:23:43.002Z,14.66
2018-04-02T12:26:15.476Z,14.76
2018-04-02T12:28:47.978Z,15.31
2018-04-02T12:31:20.464Z,15.23
2018-04-02T12:33:52.965Z,14.75
2018-04-02T12:36:25.462Z,14.70
2018-04-02T12:38:57.954Z,14.90
2018-04-02T12:41:30.426Z,14.68
2018-04-02T12:44:02.932Z,14.72
2018-04-02T12:46:35.414Z,14.77
2018-04-02T12:49:07.915Z,14.98
2018-04-02T12:51:40.444Z,14.88
2018-04-02T12:54:12.960Z,14.70
2018-04-02T12:56:45.447Z,13.72
2018-04-02T12:59:17.981Z,13.67
2018-04-02T13:01:50.484Z,13.47
2018-04-02T13:04:22.984Z,14.05
2018-04-02T13:06:55.462Z,14.20
2018-04-02T13:09:27.962Z,14.35
2018-04-02T13:12:00.448Z,13.92
2018-04-02T13:14:32.955Z,13.10
2018-04-02T13:17:05.441Z,13.46
2018-04-02T13:19:37.944Z,13.68
2018-04-02T13:22:11.190Z,13.64
2018-04-02T13:24:43.776Z,13.59
2018-04-02T13:27:16.233Z,13.85
2018-04-02T13:29:48.782Z,14.71
2018-04-02T13:32:21.270Z,14.64
2018-04-02T13:34:53.774Z,14.87
2018-04-02T13:37:26.260Z,14.97
2018-04-02T13:39:58.774Z,14.15
2018-04-02T13:42:31.258Z,14.65
2018-04-02T13:45:03.762Z,13.86
2018-04-02T13:47:36.247Z,14.07
2018-04-02T13:50:08.759Z,13.59
2018-04-02T13:52:41.270Z,13.29
2018-04-02T13:55:13.783Z,13.68
2018-04-02T13:57:46.312Z,13.89
2018-04-02T14:00:18.810Z,13.92
2018-04-02T14:02:51.295Z,14.27
2018-04-02T14:05:23.801Z,14.08
2018-04-02T14:07:56.303Z,14.53
2018-04-02T14:10:28.803Z,13.37
2018-04-02T14:13:01.303Z,13.62
2018-04-02T14:15:33.797Z,14.31
2018-04-02T14:18:06.307Z,13.94
2018-04-02T14:20:40.006Z,14.34
2018-04-02T14:23:12.524Z,13.84
2018-04-02T14:25:45.028Z,14.21
2018-04-02T14:28:17.532Z,14.09
2018-04-02T14:30:50.012Z,13.89
2018-04-02T14:33:22.519Z,13.52
2018-04-02T14:35:55.003Z,13.70
2018-04-02T14:38:27.515Z,13.97
2018-04-02T14:41:00.000Z,14.19
2018-04-02T14:43:32.506Z,14.03
2018-04-02T14:46:04.990Z,13.61
2018-04-02T14:48:37.502Z,13.75
2018-04-02T14:51:10.023Z,13.83
2018-04-02T14:53:42.563Z,13.71
2018-04-02T14:56:15.066Z,13.53
2018-04-02T14:58:47.589Z,13.44
2018-04-02T15:01:20.092Z,13.55
2018-04-02T15:03:52.587Z,13.42
2018-04-02T15:06:25.063Z,13.26
2018-04-02T15:08:57.563Z,13.16
2018-04-02T15:11:30.048Z,13.26
2018-04-02T15:14:02.551Z,13.33
2018-04-02T15:16:35.032Z,13.12
2018-04-02T15:19:07.530Z,12.81
2018-04-02T15:21:41.114Z,12.80
2018-04-02T15:24:13.626Z,12.86
2018-04-02T15:26:46.109Z,13.08
2018-04-02T15:29:18.663Z,12.85
2018-04-02T15:31:51.151Z,12.82
2018-04-02T15:34:23.655Z,12.91
2018-04-02T15:36:56.151Z,13.00
2018-04-02T15:39:28.655Z,13.05
2018-04-02T15:42:01.129Z,13.24
2018-04-02T15:44:33.635Z,13.01
2018-04-02T15:47:06.125Z,13.23
2018-04-02T15:49:38.631Z,12.94
2018-04-02T15:52:11.970Z,13.07
2018-04-02T15:54:44.477Z,12.79
2018-04-02T15:57:16.956Z,12.89
2018-04-02T15:59:49.515Z,12.96
2018-04-02T16:02:21.961Z,12.85
2018-04-02T16:04:54.470Z,12.78
2018-04-02T16:07:26.953Z,12.82
2018-04-02T16:09:59.450Z,12.92
2018-04-02T16:12:31.930Z,12.96
2018-04-02T16:15:04.443Z,13.04
2018-04-02T16:17:36.928Z,12.87
2018-04-02T16:20:09.466Z,12.84
2018-04-02T16:22:41.967Z,12.71
2018-04-02T16:25:14.469Z,12.59
2018-04-02T16:27:47.085Z,12.65
2018-04-02T16:30:19.614Z,12.74
2018-04-02T16:32:52.093Z,12.77
2018-04-02T16:35:24.602Z,12.57
2018-04-02T16:37:57.078Z,12.29
2018-04-02T16:40:29.602Z,12.45
2018-04-02T16:43:02.091Z,12.57
2018-04-02T16:45:34.593Z,12.66
2018-04-02T16:48:07.067Z,12.59
2018-04-02T16:50:39.796Z,12.36
2018-04-02T16:53:12.308Z,12.49
2018-04-02T16:55:44.823Z,12.65
2018-04-02T16:58:17.310Z,12.56
2018-04-02T17:00:49.814Z,12.47
2018-04-02T17:03:22.298Z,12.25
2018-04-02T17:05:54.794Z,12.24
2018-04-02T17:08:27.294Z,12.29
2018-04-02T17:10:59.794Z,12.16
2018-04-02T17:13:32.908Z,12.10
2018-04-02T17:16:05.416Z,12.13
2018-04-02T17:18:37.890Z,11.77
2018-04-02T17:21:10.399Z,11.70
2018-04-02T17:23:42.960Z,11.67
2018-04-02T17:26:15.471Z,11.56
2018-04-02T17:28:47.974Z,11.22
2018-04-02T17:31:20.475Z,11.46
2018-04-02T17:33:52.964Z,11.70
2018-04-02T17:36:25.481Z,11.61
2018-04-02T17:38:57.966Z,11.20
2018-04-02T17:41:30.471Z,11.26
2018-04-02T17:44:02.964Z,11.62
2018-04-02T17:46:35.466Z,11.40
2018-04-02T17:49:07.945Z,11.06
2018-04-02T17:51:41.358Z,11.23
2018-04-02T17:54:14.811Z,11.33
2018-04-02T17:56:47.533Z,11.31
2018-04-02T17:59:20.043Z,11.40
2018-04-02T18:01:52.538Z,11.36
2018-04-02T18:04:25.083Z,11.37
2018-04-02T18:06:57.902Z,11.25
2018-04-02T18:09:30.378Z,11.43
2018-04-02T18:12:02.877Z,11.28
2018-04-02T18:14:35.889Z,11.21
2018-04-02T18:17:08.433Z,11.42
2018-04-02T18:19:41.932Z,11.39
2018-04-02T18:22:14.450Z,11.34
2018-04-02T18:24:46.970Z,11.31
2018-04-02T18:27:19.527Z,11.28
2018-04-02T18:29:52.133Z,10.99
2018-04-02T18:32:24.618Z,11.25
2018-04-02T18:34:57.111Z,11.33
2018-04-02T18:37:29.584Z,11.15
2018-04-02T18:40:02.082Z,11.13
2018-04-02T18:42:34.567Z,11.25
2018-04-02T18:45:07.102Z,11.24
2018-04-02T18:47:39.716Z,11.24
2018-04-02T18:50:12.875Z,10.76
2018-04-02T18:52:46.391Z,11.20
2018-04-02T18:55:19.363Z,11.20
2018-04-02T18:57:52.570Z,11.29
2018-04-02T19:00:25.100Z,11.24
2018-04-02T19:02:57.577Z,11.13
2018-04-02T19:05:30.074Z,11.03
2018-04-02T19:08:02.562Z,10.89
2018-04-02T19:10:35.065Z,10.78
2018-04-02T19:13:07.538Z,10.91
2018-04-02T19:15:40.752Z,10.79
2018-04-02T19:18:14.042Z,10.82
2018-04-02T19:20:46.603Z,10.80
2018-04-02T19:23:19.469Z,10.56
2018-04-02T19:25:52.170Z,10.90
2018-04-02T19:28:24.723Z,10.66
2018-04-02T19:30:57.255Z,10.12
2018-04-02T19:33:29.762Z,10.34
2018-04-02T19:36:02.271Z,10.11
2018-04-02T19:38:34.774Z,10.44
2018-04-02T19:41:07.284Z,10.42
2018-04-02T19:43:40.562Z,9.30
2018-04-02T19:46:17.893Z,9.98
2018-04-02T19:48:50.558Z,9.83
2018-04-02T19:51:23.431Z,10.25
2018-04-02T19:53:55.944Z,10.30
2018-04-02T19:56:28.447Z,10.23
2018-04-02T19:59:00.940Z,9.97
2018-04-02T20:01:33.438Z,9.84
2018-04-02T20:04:05.918Z,9.94
2018-04-02T20:06:38.448Z,9.90
2018-04-02T20:09:16.283Z,9.93
2018-04-02T20:11:49.595Z,9.84
2018-04-02T20:14:22.259Z,9.37
2018-04-02T20:16:54.754Z,9.85
2018-04-02T20:19:28.329Z,9.69
2018-04-02T20:22:00.878Z,9.63
2018-04-02T20:24:33.358Z,9.57
2018-04-02T20:27:05.869Z,9.69
2018-04-02T20:29:38.348Z,9.84
2018-04-02T20:32:11.628Z,9.95
2018-04-02T20:34:49.284Z,9.67
2018-04-02T20:37:23.128Z,9.77
2018-04-02T20:39:57.827Z,9.71
2018-04-02T20:42:30.325Z,10.08
2018-04-02T20:45:02.811Z,10.03
2018-04-02T20:47:35.311Z,10.06
2018-04-02T20:50:07.788Z,9.92
2018-04-02T20:52:40.328Z,9.80
2018-04-02T20:55:18.655Z,10.23
2018-04-02T20:57:53.252Z,10.23
2018-04-02T21:00:26.563Z,10.39
2018-04-02T21:02:59.297Z,10.24
2018-04-02T21:05:31.823Z,10.20
2018-04-02T21:08:04.333Z,10.18
2018-04-02T21:10:36.819Z,9.95
2018-04-02T21:13:09.417Z,10.13
2018-04-02T21:15:45.837Z,10.26
2018-04-02T21:18:19.857Z,9.82
2018-04-02T21:20:52.451Z,10.01
2018-04-02T21:23:24.954Z,10.13
2018-04-02T21:25:57.434Z,10.02
2018-04-02T21:28:29.960Z,9.94
2018-04-02T21:31:02.432Z,9.85
2018-04-02T21:33:34.939Z,10.24
2018-04-02T21:36:07.426Z,10.09
2018-04-02T21:38:41.398Z,10.08
2018-04-02T21:41:15.681Z,9.98
2018-04-02T21:43:54.122Z,10.03
2018-04-02T21:46:27.403Z,9.97
2018-04-02T21:49:00.333Z,10.17
2018-04-02T21:51:32.896Z,10.20
2018-04-02T21:54:05.346Z,10.21
2018-04-02T21:56:37.843Z,10.24
2018-04-02T21:59:16.277Z,10.26
2018-04-02T22:01:52.017Z,10.32
2018-04-02T22:04:26.168Z,10.35
2018-04-02T22:07:09.999Z,10.17
2018-04-02T22:09:50.077Z,10.14
2018-04-02T22:12:23.073Z,10.46
2018-04-02T22:14:59.759Z,10.51
2018-04-02T22:17:32.279Z,10.55
2018-04-02T22:20:04.770Z,10.61
2018-04-02T22:22:37.266Z,10.75
2018-04-02T22:25:10.006Z,10.68
2018-04-02T22:27:50.546Z,10.84
2018-04-02T22:33:02.868Z,10.74
2018-04-02T22:35:35.346Z,10.79
2018-04-02T22:38:07.842Z,10.83
2018-04-02T22:40:40.947Z,10.86
2018-04-02T22:43:14.246Z,10.73
2018-04-02T22:45:47.595Z,10.75
2018-04-02T22:48:20.661Z,10.60
2018-04-02T22:50:53.270Z,10.58
2018-04-02T22:53:25.780Z,10.61
2018-04-02T22:55:58.287Z,10.59
2018-04-02T22:58:30.863Z,10.53
2018-04-02T23:01:03.360Z,10.45
2018-04-02T23:03:35.870Z,10.36
2018-04-02T23:06:08.369Z,10.38
2018-04-02T23:08:41.675Z,10.33
2018-04-02T23:11:20.100Z,10.32
2018-04-02T23:13:54.599Z,10.41
2018-04-02T23:16:27.216Z,10.36
2018-04-02T23:18:59.725Z,10.38
2018-04-02T23:21:32.215Z,10.42
2018-04-02T23:24:04.715Z,10.47
2018-04-02T23:26:37.206Z,10.22
2018-04-02T23:29:10.643Z,10.20
2018-04-02T23:31:45.833Z,10.20
2018-04-02T23:34:19.725Z,10.25
2018-04-02T23:36:53.120Z,10.27
2018-04-02T23:39:27.483Z,10.38
2018-04-02T23:42:00.016Z,10.32
2018-04-02T23:44:32.526Z,10.21
2018-04-02T23:47:05.015Z,10.26
2018-04-02T23:49:37.518Z,10.31
2018-04-02T23:52:10.408Z,10.37
2018-04-02T23:54:44.165Z,10.36
2018-04-02T23:57:20.806Z,10.26
2018-04-02T23:59:53.765Z,10.27
